sensor_id;sensor_type;location;lat;lon;timestamp;pressure;altitude;pressure_sealevel;temperature;humidity
34925;BME280;21130;51.728;8.748;2022-12-18T00:01:15;101752.38;;;-10.64;100.00
34925;BME280;21130;51.728;8.748;2022-12-18T00:03:42;101742.03;;;-10.72;100.00
34925;BME280;21130;51.728;8.748;2022-12-18T00:06:13;101743.13;;;-10.76;100.00
34925;BME280;21130;51.728;8.748;2022-12-18T00:08:41;101758.75;;;-10.67;100.00
34925;BME280;21130;51.728;8.748;2022-12-18T00:11:11;101757.81;;;-10.66;100.00
34925;BME280;21130;51.728;8.748;2022-12-18T00:13:38;101757.81;;;-10.66;100.00
34925;BME280;21130;51.728;8.748;2022-12-18T00:16:06;101754.25;;;-10.66;100.00
34925;BME280;21130;51.728;8.748;2022-12-18T00:18:33;101751.56;;;-10.66;100.00
34925;BME280;21130;51.728;8.748;2022-12-18T00:21:00;101752.19;;;-10.61;100.00
34925;BME280;21130;51.728;8.748;2022-12-18T00:23:30;101748.47;;;-10.76;100.00
34925;BME280;21130;51.728;8.748;2022-12-18T00:25:59;101747.06;;;-10.83;100.00
34925;BME280;21130;51.728;8.748;2022-12-18T00:28:26;101749.66;;;-10.81;100.00
34925;BME280;21130;51.728;8.748;2022-12-18T00:31:00;101754.09;;;-10.80;100.00
34925;BME280;21130;51.728;8.748;2022-12-18T00:33:27;101759.19;;;-10.76;100.00
34925;BME280;21130;51.728;8.748;2022-12-18T00:35:53;101762.41;;;-10.68;100.00
34925;BME280;21130;51.728;8.748;2022-12-18T00:38:20;101759.22;;;-10.58;100.00
34925;BME280;21130;51.728;8.748;2022-12-18T00:40:48;101764.94;;;-10.47;100.00
34925;BME280;21130;51.728;8.748;2022-12-18T00:43:16;101767.53;;;-10.46;100.00
34925;BME280;21130;51.728;8.748;2022-12-18T00:45:42;101759.56;;;-10.47;100.00
34925;BME280;21130;51.728;8.748;2022-12-18T00:48:08;101765.94;;;-10.50;100.00
34925;BME280;21130;51.728;8.748;2022-12-18T00:50:35;101767.69;;;-10.49;100.00
34925;BME280;21130;51.728;8.748;2022-12-18T00:53:02;101773.44;;;-10.56;100.00
34925;BME280;21130;51.728;8.748;2022-12-18T00:55:28;101769.94;;;-10.58;100.00
34925;BME280;21130;51.728;8.748;2022-12-18T00:57:56;101779.91;;;-10.60;100.00
34925;BME280;21130;51.728;8.748;2022-12-18T01:00:23;101766.00;;;-10.69;100.00
34925;BME280;21130;51.728;8.748;2022-12-18T01:02:50;101768.91;;;-10.73;100.00
34925;BME280;21130;51.728;8.748;2022-12-18T01:05:17;101768.06;;;-10.74;100.00
34925;BME280;21130;51.728;8.748;2022-12-18T01:07:44;101765.31;;;-10.72;100.00
34925;BME280;21130;51.728;8.748;2022-12-18T01:10:12;101763.81;;;-10.78;100.00
34925;BME280;21130;51.728;8.748;2022-12-18T01:12:39;101760.97;;;-10.75;100.00
34925;BME280;21130;51.728;8.748;2022-12-18T01:15:09;101757.66;;;-10.80;100.00
34925;BME280;21130;51.728;8.748;2022-12-18T01:17:36;101757.00;;;-10.85;100.00
34925;BME280;21130;51.728;8.748;2022-12-18T01:20:03;101766.31;;;-10.75;100.00
34925;BME280;21130;51.728;8.748;2022-12-18T01:22:30;101759.38;;;-10.79;100.00
34925;BME280;21130;51.728;8.748;2022-12-18T01:24:57;101766.47;;;-10.78;100.00
34925;BME280;21130;51.728;8.748;2022-12-18T01:27:23;101766.72;;;-10.65;100.00
34925;BME280;21130;51.728;8.748;2022-12-18T01:29:50;101758.75;;;-10.67;100.00
34925;BME280;21130;51.728;8.748;2022-12-18T01:32:18;101754.13;;;-10.46;100.00
34925;BME280;21130;51.728;8.748;2022-12-18T01:34:44;101755.81;;;-10.27;100.00
34925;BME280;21130;51.728;8.748;2022-12-18T01:37:11;101753.09;;;-10.10;100.00
34925;BME280;21130;51.728;8.748;2022-12-18T01:39:37;101748.63;;;-9.93;100.00
34925;BME280;21130;51.728;8.748;2022-12-18T01:42:10;101749.72;;;-9.80;100.00
34925;BME280;21130;51.728;8.748;2022-12-18T01:44:59;101742.66;;;-9.65;100.00
34925;BME280;21130;51.728;8.748;2022-12-18T01:47:32;101738.94;;;-9.47;100.00
34925;BME280;21130;51.728;8.748;2022-12-18T01:50:03;101746.22;;;-9.33;100.00
34925;BME280;21130;51.728;8.748;2022-12-18T01:52:31;101746.31;;;-9.35;100.00
34925;BME280;21130;51.728;8.748;2022-12-18T01:54:59;101747.63;;;-9.10;100.00
34925;BME280;21130;51.728;8.748;2022-12-18T01:57:27;101747.16;;;-9.18;100.00
34925;BME280;21130;51.728;8.748;2022-12-18T01:59:59;101738.84;;;-9.14;100.00
34925;BME280;21130;51.728;8.748;2022-12-18T02:02:26;101742.66;;;-9.02;100.00
34925;BME280;21130;51.728;8.748;2022-12-18T02:04:54;101742.47;;;-8.99;100.00
34925;BME280;21130;51.728;8.748;2022-12-18T02:07:26;101742.44;;;-8.83;100.00
34925;BME280;21130;51.728;8.748;2022-12-18T02:10:01;101745.06;;;-8.81;100.00
34925;BME280;21130;51.728;8.748;2022-12-18T02:12:36;101743.34;;;-8.82;100.00
34925;BME280;21130;51.728;8.748;2022-12-18T02:15:13;101739.75;;;-8.83;100.00
34925;BME280;21130;51.728;8.748;2022-12-18T02:17:45;101734.81;;;-8.75;100.00
34925;BME280;21130;51.728;8.748;2022-12-18T02:20:18;101739.81;;;-8.68;100.00
34925;BME280;21130;51.728;8.748;2022-12-18T02:22:57;101734.00;;;-8.61;100.00
34925;BME280;21130;51.728;8.748;2022-12-18T02:25:54;101732.22;;;-8.32;100.00
34925;BME280;21130;51.728;8.748;2022-12-18T02:28:28;101730.91;;;-7.96;100.00
34925;BME280;21130;51.728;8.748;2022-12-18T02:30:59;101729.88;;;-7.79;100.00
34925;BME280;21130;51.728;8.748;2022-12-18T02:33:29;101730.81;;;-7.51;100.00
34925;BME280;21130;51.728;8.748;2022-12-18T02:35:57;101725.91;;;-7.45;100.00
34925;BME280;21130;51.728;8.748;2022-12-18T02:38:25;101726.00;;;-7.46;100.00
34925;BME280;21130;51.728;8.748;2022-12-18T02:40:57;101721.38;;;-7.44;100.00
34925;BME280;21130;51.728;8.748;2022-12-18T02:43:23;101716.34;;;-7.36;100.00
34925;BME280;21130;51.728;8.748;2022-12-18T02:45:52;101716.34;;;-7.36;100.00
34925;BME280;21130;51.728;8.748;2022-12-18T02:48:23;101700.94;;;-7.34;100.00
34925;BME280;21130;51.728;8.748;2022-12-18T02:50:57;101703.91;;;-7.24;100.00
34925;BME280;21130;51.728;8.748;2022-12-18T02:53:31;101706.78;;;-7.27;100.00
34925;BME280;21130;51.728;8.748;2022-12-18T02:56:07;101705.72;;;-7.25;100.00
34925;BME280;21130;51.728;8.748;2022-12-18T02:58:46;101709.56;;;-7.14;100.00
34925;BME280;21130;51.728;8.748;2022-12-18T03:01:21;101714.03;;;-7.01;100.00
34925;BME280;21130;51.728;8.748;2022-12-18T03:03:55;101715.44;;;-6.95;100.00
34925;BME280;21130;51.728;8.748;2022-12-18T03:06:25;101711.03;;;-6.96;100.00
34925;BME280;21130;51.728;8.748;2022-12-18T03:08:56;101718.72;;;-6.90;100.00
34925;BME280;21130;51.728;8.748;2022-12-18T03:11:28;101724.00;;;-6.88;100.00
34925;BME280;21130;51.728;8.748;2022-12-18T03:14:15;101728.00;;;-6.67;100.00
34925;BME280;21130;51.728;8.748;2022-12-18T03:16:44;101721.56;;;-6.79;100.00
34925;BME280;21130;51.728;8.748;2022-12-18T03:19:16;101719.91;;;-6.54;100.00
34925;BME280;21130;51.728;8.748;2022-12-18T03:21:45;101722.25;;;-6.62;100.00
34925;BME280;21130;51.728;8.748;2022-12-18T03:24:15;101718.59;;;-6.61;100.00
34925;BME280;21130;51.728;8.748;2022-12-18T03:26:46;101718.06;;;-6.66;100.00
34925;BME280;21130;51.728;8.748;2022-12-18T03:29:16;101723.84;;;-6.72;100.00
34925;BME280;21130;51.728;8.748;2022-12-18T03:31:49;101727.66;;;-6.62;100.00
34925;BME280;21130;51.728;8.748;2022-12-18T03:34:22;101723.94;;;-6.47;100.00
34925;BME280;21130;51.728;8.748;2022-12-18T03:36:49;101726.00;;;-6.38;100.00
34925;BME280;21130;51.728;8.748;2022-12-18T03:39:16;101734.22;;;-6.39;100.00
34925;BME280;21130;51.728;8.748;2022-12-18T03:41:46;101729.34;;;-6.47;100.00
34925;BME280;21130;51.728;8.748;2022-12-18T03:44:19;101732.03;;;-6.47;100.00
34925;BME280;21130;51.728;8.748;2022-12-18T03:46:55;101731.28;;;-6.49;100.00
34925;BME280;21130;51.728;8.748;2022-12-18T03:49:25;101729.84;;;-6.55;100.00
34925;BME280;21130;51.728;8.748;2022-12-18T03:51:57;101726.19;;;-6.54;100.00
34925;BME280;21130;51.728;8.748;2022-12-18T03:54:28;101725.84;;;-6.62;100.00
34925;BME280;21130;51.728;8.748;2022-12-18T03:56:59;101726.63;;;-6.47;100.00
34925;BME280;21130;51.728;8.748;2022-12-18T03:59:28;101730.28;;;-6.48;100.00
34925;BME280;21130;51.728;8.748;2022-12-18T04:01:57;101725.44;;;-6.43;100.00
34925;BME280;21130;51.728;8.748;2022-12-18T04:04:27;101722.88;;;-6.32;100.00
34925;BME280;21130;51.728;8.748;2022-12-18T04:06:55;101729.47;;;-6.23;100.00
34925;BME280;21130;51.728;8.748;2022-12-18T04:09:22;101721.06;;;-6.18;100.00
34925;BME280;21130;51.728;8.748;2022-12-18T04:11:51;101716.19;;;-6.13;100.00
34925;BME280;21130;51.728;8.748;2022-12-18T04:14:19;101720.50;;;-6.23;100.00
34925;BME280;21130;51.728;8.748;2022-12-18T04:16:46;101722.44;;;-6.25;100.00
34925;BME280;21130;51.728;8.748;2022-12-18T04:19:12;101719.97;;;-6.28;100.00
34925;BME280;21130;51.728;8.748;2022-12-18T04:21:39;101716.06;;;-6.24;100.00
34925;BME280;21130;51.728;8.748;2022-12-18T04:24:06;101715.09;;;-6.23;100.00
34925;BME280;21130;51.728;8.748;2022-12-18T04:26:33;101718.44;;;-6.33;100.00
34925;BME280;21130;51.728;8.748;2022-12-18T04:29:00;101719.19;;;-6.31;100.00
34925;BME280;21130;51.728;8.748;2022-12-18T04:31:28;101724.94;;;-6.22;100.00
34925;BME280;21130;51.728;8.748;2022-12-18T04:33:54;101730.69;;;-6.14;100.00
34925;BME280;21130;51.728;8.748;2022-12-18T04:36:21;101731.63;;;-6.15;100.00
34925;BME280;21130;51.728;8.748;2022-12-18T04:38:47;101737.19;;;-6.04;100.00
34925;BME280;21130;51.728;8.748;2022-12-18T04:41:14;101733.50;;;-6.03;100.00
34925;BME280;21130;51.728;8.748;2022-12-18T04:43:40;101736.19;;;-6.16;100.00
34925;BME280;21130;51.728;8.748;2022-12-18T04:46:08;101739.81;;;-6.30;100.00
34925;BME280;21130;51.728;8.748;2022-12-18T04:48:36;101739.06;;;-6.44;100.00
34925;BME280;21130;51.728;8.748;2022-12-18T04:51:03;101737.63;;;-6.50;100.00
34925;BME280;21130;51.728;8.748;2022-12-18T04:53:30;101747.75;;;-6.66;100.00
34925;BME280;21130;51.728;8.748;2022-12-18T04:56:05;101749.38;;;-6.64;100.00
34925;BME280;21130;51.728;8.748;2022-12-18T04:58:32;101746.97;;;-6.68;100.00
34925;BME280;21130;51.728;8.748;2022-12-18T05:00:59;101749.34;;;-6.77;100.00
34925;BME280;21130;51.728;8.748;2022-12-18T05:03:25;101749.69;;;-6.68;100.00
34925;BME280;21130;51.728;8.748;2022-12-18T05:05:53;101750.28;;;-6.78;100.00
34925;BME280;21130;51.728;8.748;2022-12-18T05:08:20;101755.91;;;-6.81;100.00
34925;BME280;21130;51.728;8.748;2022-12-18T05:10:46;101750.34;;;-6.92;100.00
34925;BME280;21130;51.728;8.748;2022-12-18T05:13:13;101743.97;;;-6.91;100.00
34925;BME280;21130;51.728;8.748;2022-12-18T05:15:39;101734.91;;;-6.90;100.00
34925;BME280;21130;51.728;8.748;2022-12-18T05:18:07;101738.03;;;-6.96;100.00
34925;BME280;21130;51.728;8.748;2022-12-18T05:20:34;101740.84;;;-6.58;100.00
34925;BME280;21130;51.728;8.748;2022-12-18T05:23:02;101733.50;;;-6.56;100.00
34925;BME280;21130;51.728;8.748;2022-12-18T05:25:28;101722.72;;;-6.56;100.00
34925;BME280;21130;51.728;8.748;2022-12-18T05:27:54;101725.94;;;-6.63;100.00
34925;BME280;21130;51.728;8.748;2022-12-18T05:30:21;101721.69;;;-6.67;100.00
34925;BME280;21130;51.728;8.748;2022-12-18T05:32:47;101720.22;;;-6.59;100.00
34925;BME280;21130;51.728;8.748;2022-12-18T05:35:14;101721.59;;;-6.66;100.00
34925;BME280;21130;51.728;8.748;2022-12-18T05:37:40;101718.47;;;-6.60;100.00
34925;BME280;21130;51.728;8.748;2022-12-18T05:40:10;101718.38;;;-6.58;100.00
34925;BME280;21130;51.728;8.748;2022-12-18T05:42:37;101722.78;;;-6.70;100.00
34925;BME280;21130;51.728;8.748;2022-12-18T05:45:04;101731.38;;;-6.78;100.00
34925;BME280;21130;51.728;8.748;2022-12-18T05:47:31;101732.41;;;-6.66;100.00
34925;BME280;21130;51.728;8.748;2022-12-18T05:49:58;101731.34;;;-6.63;100.00
34925;BME280;21130;51.728;8.748;2022-12-18T05:52:24;101715.59;;;-6.57;100.00
34925;BME280;21130;51.728;8.748;2022-12-18T05:54:51;101719.56;;;-6.62;100.00
34925;BME280;21130;51.728;8.748;2022-12-18T05:57:19;101729.06;;;-6.69;100.00
34925;BME280;21130;51.728;8.748;2022-12-18T05:59:45;101725.91;;;-6.76;100.00
34925;BME280;21130;51.728;8.748;2022-12-18T06:02:12;101731.69;;;-6.82;100.00
34925;BME280;21130;51.728;8.748;2022-12-18T06:04:38;101726.09;;;-6.79;100.00
34925;BME280;21130;51.728;8.748;2022-12-18T06:07:05;101736.56;;;-6.75;100.00
34925;BME280;21130;51.728;8.748;2022-12-18T06:09:31;101721.34;;;-6.76;100.00
34925;BME280;21130;51.728;8.748;2022-12-18T06:11:58;101730.34;;;-6.62;100.00
34925;BME280;21130;51.728;8.748;2022-12-18T06:14:26;101726.41;;;-6.57;100.00
34925;BME280;21130;51.728;8.748;2022-12-18T06:16:53;101727.09;;;-6.27;100.00
34925;BME280;21130;51.728;8.748;2022-12-18T06:19:20;101720.41;;;-6.09;100.00
34925;BME280;21130;51.728;8.748;2022-12-18T06:21:46;101728.81;;;-5.88;100.00
34925;BME280;21130;51.728;8.748;2022-12-18T06:24:14;101729.78;;;-5.76;100.00
34925;BME280;21130;51.728;8.748;2022-12-18T06:26:41;101734.31;;;-5.64;100.00
34925;BME280;21130;51.728;8.748;2022-12-18T06:29:07;101732.88;;;-5.57;100.00
34925;BME280;21130;51.728;8.748;2022-12-18T06:31:35;101738.75;;;-5.63;100.00
34925;BME280;21130;51.728;8.748;2022-12-18T06:34:02;101742.28;;;-5.50;100.00
34925;BME280;21130;51.728;8.748;2022-12-18T06:36:29;101739.38;;;-5.59;100.00
34925;BME280;21130;51.728;8.748;2022-12-18T06:38:56;101732.72;;;-5.67;100.00
34925;BME280;21130;51.728;8.748;2022-12-18T06:41:23;101735.06;;;-5.62;100.00
34925;BME280;21130;51.728;8.748;2022-12-18T06:43:50;101743.94;;;-5.60;100.00
34925;BME280;21130;51.728;8.748;2022-12-18T06:46:16;101737.56;;;-5.59;100.00
34925;BME280;21130;51.728;8.748;2022-12-18T06:48:46;101756.38;;;-5.57;100.00
34925;BME280;21130;51.728;8.748;2022-12-18T06:51:16;101746.53;;;-5.58;100.00
34925;BME280;21130;51.728;8.748;2022-12-18T06:53:42;101752.56;;;-5.55;100.00
34925;BME280;21130;51.728;8.748;2022-12-18T06:56:08;101756.81;;;-5.63;100.00
34925;BME280;21130;51.728;8.748;2022-12-18T06:58:35;101754.75;;;-5.60;100.00
34925;BME280;21130;51.728;8.748;2022-12-18T07:01:03;101770.13;;;-5.60;100.00
34925;BME280;21130;51.728;8.748;2022-12-18T07:03:53;101767.50;;;-5.62;100.00
34925;BME280;21130;51.728;8.748;2022-12-18T07:06:38;101768.94;;;-5.56;100.00
34925;BME280;21130;51.728;8.748;2022-12-18T07:09:06;101770.66;;;-5.55;100.00
34925;BME280;21130;51.728;8.748;2022-12-18T07:11:33;101769.25;;;-5.61;100.00
34925;BME280;21130;51.728;8.748;2022-12-18T07:13:59;101777.47;;;-5.75;100.00
34925;BME280;21130;51.728;8.748;2022-12-18T07:16:26;101769.81;;;-5.69;100.00
34925;BME280;21130;51.728;8.748;2022-12-18T07:18:55;101775.53;;;-5.73;100.00
34925;BME280;21130;51.728;8.748;2022-12-18T07:21:24;101763.97;;;-5.75;100.00
34925;BME280;21130;51.728;8.748;2022-12-18T07:23:51;101774.22;;;-5.80;100.00
34925;BME280;21130;51.728;8.748;2022-12-18T07:26:19;101766.88;;;-5.78;100.00
34925;BME280;21130;51.728;8.748;2022-12-18T07:28:47;101756.16;;;-5.80;100.00
34925;BME280;21130;51.728;8.748;2022-12-18T07:31:15;101755.75;;;-5.74;100.00
34925;BME280;21130;51.728;8.748;2022-12-18T07:33:43;101753.03;;;-5.61;100.00
34925;BME280;21130;51.728;8.748;2022-12-18T07:36:11;101745.47;;;-5.56;100.00
34925;BME280;21130;51.728;8.748;2022-12-18T07:38:38;101749.22;;;-5.46;100.00
34925;BME280;21130;51.728;8.748;2022-12-18T07:41:06;101741.88;;;-5.44;100.00
34925;BME280;21130;51.728;8.748;2022-12-18T07:43:33;101747.13;;;-5.29;100.00
34925;BME280;21130;51.728;8.748;2022-12-18T07:46:01;101748.22;;;-5.32;100.00
34925;BME280;21130;51.728;8.748;2022-12-18T07:48:27;101760.56;;;-5.28;100.00
34925;BME280;21130;51.728;8.748;2022-12-18T07:50:58;101769.34;;;-5.24;100.00
34925;BME280;21130;51.728;8.748;2022-12-18T07:53:26;101767.88;;;-5.17;100.00
34925;BME280;21130;51.728;8.748;2022-12-18T07:55:56;101771.81;;;-5.21;100.00
34925;BME280;21130;51.728;8.748;2022-12-18T07:58:23;101776.47;;;-5.23;100.00
34925;BME280;21130;51.728;8.748;2022-12-18T08:00:50;101768.78;;;-5.29;100.00
34925;BME280;21130;51.728;8.748;2022-12-18T08:03:17;101768.13;;;-5.33;100.00
34925;BME280;21130;51.728;8.748;2022-12-18T08:05:44;101769.00;;;-5.32;100.00
34925;BME280;21130;51.728;8.748;2022-12-18T08:08:11;101769.22;;;-5.35;100.00
34925;BME280;21130;51.728;8.748;2022-12-18T08:10:39;101771.16;;;-5.37;100.00
34925;BME280;21130;51.728;8.748;2022-12-18T08:13:05;101769.34;;;-5.24;100.00
34925;BME280;21130;51.728;8.748;2022-12-18T08:15:32;101763.34;;;-5.29;100.00
34925;BME280;21130;51.728;8.748;2022-12-18T08:17:58;101763.72;;;-5.34;100.00
34925;BME280;21130;51.728;8.748;2022-12-18T08:20:25;101755.16;;;-5.40;100.00
34925;BME280;21130;51.728;8.748;2022-12-18T08:22:51;101751.59;;;-5.41;100.00
34925;BME280;21130;51.728;8.748;2022-12-18T08:25:19;101749.41;;;-5.23;100.00
34925;BME280;21130;51.728;8.748;2022-12-18T08:27:47;101748.59;;;-4.75;100.00
34925;BME280;21130;51.728;8.748;2022-12-18T08:30:14;101748.44;;;-4.26;100.00
34925;BME280;21130;51.728;8.748;2022-12-18T08:32:40;101737.72;;;-3.58;100.00
34925;BME280;21130;51.728;8.748;2022-12-18T08:35:07;101739.44;;;-3.35;100.00
34925;BME280;21130;51.728;8.748;2022-12-18T08:37:34;101717.66;;;-2.90;100.00
34925;BME280;21130;51.728;8.748;2022-12-18T08:40:01;101723.09;;;-2.57;100.00
34925;BME280;21130;51.728;8.748;2022-12-18T08:42:27;101717.09;;;-2.40;100.00
34925;BME280;21130;51.728;8.748;2022-12-18T08:45:13;101714.41;;;-1.98;100.00
34925;BME280;21130;51.728;8.748;2022-12-18T08:47:39;101710.25;;;-1.71;100.00
34925;BME280;21130;51.728;8.748;2022-12-18T08:50:06;101711.16;;;-1.61;100.00
34925;BME280;21130;51.728;8.748;2022-12-18T08:52:32;101720.19;;;-1.30;100.00
34925;BME280;21130;51.728;8.748;2022-12-18T08:54:59;101726.16;;;-0.86;100.00
34925;BME280;21130;51.728;8.748;2022-12-18T08:57:25;101728.22;;;-0.69;100.00
34925;BME280;21130;51.728;8.748;2022-12-18T08:59:52;101723.50;;;-0.47;100.00
34925;BME280;21130;51.728;8.748;2022-12-18T09:02:20;101711.72;;;-0.18;100.00
34925;BME280;21130;51.728;8.748;2022-12-18T09:04:47;101719.03;;;0.01;100.00
34925;BME280;21130;51.728;8.748;2022-12-18T09:07:13;101719.34;;;0.35;100.00
34925;BME280;21130;51.728;8.748;2022-12-18T09:09:40;101720.41;;;0.24;100.00
34925;BME280;21130;51.728;8.748;2022-12-18T09:12:06;101712.13;;;0.53;99.88
34925;BME280;21130;51.728;8.748;2022-12-18T09:14:33;101697.41;;;0.92;97.49
34925;BME280;21130;51.728;8.748;2022-12-18T09:16:59;101704.34;;;0.58;99.03
34925;BME280;21130;51.728;8.748;2022-12-18T09:19:27;101707.00;;;0.40;98.24
34925;BME280;21130;51.728;8.748;2022-12-18T09:21:54;101710.63;;;1.60;93.31
34925;BME280;21130;51.728;8.748;2022-12-18T09:24:20;101698.69;;;2.05;83.98
34925;BME280;21130;51.728;8.748;2022-12-18T09:26:47;101710.69;;;1.86;83.24
34925;BME280;21130;51.728;8.748;2022-12-18T09:29:14;101707.25;;;1.48;83.89
34925;BME280;21130;51.728;8.748;2022-12-18T09:31:40;101705.00;;;0.98;89.55
34925;BME280;21130;51.728;8.748;2022-12-18T09:34:07;101713.31;;;0.41;97.06
34925;BME280;21130;51.728;8.748;2022-12-18T09:36:35;101722.00;;;0.17;100.00
34925;BME280;21130;51.728;8.748;2022-12-18T09:39:02;101721.19;;;-0.13;100.00
34925;BME280;21130;51.728;8.748;2022-12-18T09:41:41;101728.06;;;-0.77;100.00
34925;BME280;21130;51.728;8.748;2022-12-18T09:44:24;101717.41;;;0.17;100.00
34925;BME280;21130;51.728;8.748;2022-12-18T09:46:54;101715.78;;;0.72;100.00
34925;BME280;21130;51.728;8.748;2022-12-18T09:49:26;101709.44;;;1.26;92.23
34925;BME280;21130;51.728;8.748;2022-12-18T09:51:59;101710.06;;;1.38;84.01
34925;BME280;21130;51.728;8.748;2022-12-18T09:54:33;101716.47;;;1.83;82.94
34925;BME280;21130;51.728;8.748;2022-12-18T09:57:01;101718.28;;;1.56;83.98
34925;BME280;21130;51.728;8.748;2022-12-18T09:59:32;101721.47;;;1.16;82.84
34925;BME280;21130;51.728;8.748;2022-12-18T10:02:00;101731.06;;;0.64;87.19
34925;BME280;21130;51.728;8.748;2022-12-18T10:04:36;101730.09;;;1.39;84.81
34925;BME280;21130;51.728;8.748;2022-12-18T10:07:09;101727.25;;;2.02;81.55
34925;BME280;21130;51.728;8.748;2022-12-18T10:09:44;101723.13;;;2.24;78.91
34925;BME280;21130;51.728;8.748;2022-12-18T10:12:20;101727.28;;;2.28;75.90
34925;BME280;21130;51.728;8.748;2022-12-18T10:14:56;101717.97;;;1.77;77.80
34925;BME280;21130;51.728;8.748;2022-12-18T10:17:28;101717.03;;;2.12;76.75
34925;BME280;21130;51.728;8.748;2022-12-18T10:20:11;101716.06;;;1.95;78.27
34925;BME280;21130;51.728;8.748;2022-12-18T10:22:47;101722.56;;;2.21;76.36
34925;BME280;21130;51.728;8.748;2022-12-18T10:25:22;101711.75;;;1.93;74.45
34925;BME280;21130;51.728;8.748;2022-12-18T10:27:51;101705.28;;;1.94;77.17
34925;BME280;21130;51.728;8.748;2022-12-18T10:30:21;101677.34;;;0.83;85.49
34925;BME280;21130;51.728;8.748;2022-12-18T10:32:48;101674.47;;;0.75;88.71
34925;BME280;21130;51.728;8.748;2022-12-18T10:35:19;101675.41;;;0.93;88.36
34925;BME280;21130;51.728;8.748;2022-12-18T10:38:23;101663.09;;;0.79;85.87
34925;BME280;21130;51.728;8.748;2022-12-18T10:40:53;101649.59;;;1.23;90.91
34925;BME280;21130;51.728;8.748;2022-12-18T10:43:23;101652.47;;;1.22;88.56
34925;BME280;21130;51.728;8.748;2022-12-18T10:46:00;101656.91;;;1.05;89.59
34925;BME280;21130;51.728;8.748;2022-12-18T10:48:27;101656.44;;;1.10;88.37
34925;BME280;21130;51.728;8.748;2022-12-18T10:50:54;101640.16;;;0.90;86.97
34925;BME280;21130;51.728;8.748;2022-12-18T10:53:24;101649.66;;;1.14;90.38
34925;BME280;21130;51.728;8.748;2022-12-18T10:55:52;101632.91;;;0.53;88.97
34925;BME280;21130;51.728;8.748;2022-12-18T10:58:23;101626.25;;;-0.09;95.12
34925;BME280;21130;51.728;8.748;2022-12-18T11:01:11;101621.47;;;-0.64;100.00
34925;BME280;21130;51.728;8.748;2022-12-18T11:03:39;101619.16;;;-0.69;100.00
34925;BME280;21130;51.728;8.748;2022-12-18T11:06:08;101631.50;;;-0.84;100.00
34925;BME280;21130;51.728;8.748;2022-12-18T11:08:37;101638.22;;;-0.88;100.00
34925;BME280;21130;51.728;8.748;2022-12-18T11:11:07;101642.28;;;-0.92;100.00
34925;BME280;21130;51.728;8.748;2022-12-18T11:13:41;101624.72;;;-1.19;100.00
34925;BME280;21130;51.728;8.748;2022-12-18T11:16:18;101620.72;;;-1.24;100.00
34925;BME280;21130;51.728;8.748;2022-12-18T11:18:45;101622.72;;;-1.17;100.00
34925;BME280;21130;51.728;8.748;2022-12-18T11:21:12;101601.53;;;-1.23;100.00
34925;BME280;21130;51.728;8.748;2022-12-18T11:23:46;101591.56;;;-1.43;100.00
34925;BME280;21130;51.728;8.748;2022-12-18T11:26:13;101591.34;;;-1.11;100.00
34925;BME280;21130;51.728;8.748;2022-12-18T11:28:41;101585.03;;;-1.12;100.00
34925;BME280;21130;51.728;8.748;2022-12-18T11:31:20;101575.13;;;-0.93;100.00
34925;BME280;21130;51.728;8.748;2022-12-18T11:43:15;101534.75;;;-0.51;100.00
34925;BME280;21130;51.728;8.748;2022-12-18T11:45:48;101527.44;;;-0.50;100.00
34925;BME280;21130;51.728;8.748;2022-12-18T11:48:21;101539.16;;;-0.30;100.00
34925;BME280;21130;51.728;8.748;2022-12-18T11:50:52;101535.56;;;-0.31;100.00
34925;BME280;21130;51.728;8.748;2022-12-18T11:53:20;101535.19;;;-0.55;100.00
34925;BME280;21130;51.728;8.748;2022-12-18T11:55:51;101533.50;;;-0.56;100.00
34925;BME280;21130;51.728;8.748;2022-12-18T11:58:32;101529.72;;;-0.46;100.00
34925;BME280;21130;51.728;8.748;2022-12-18T12:01:10;101537.06;;;-0.56;100.00
34925;BME280;21130;51.728;8.748;2022-12-18T12:03:52;101525.19;;;-0.64;100.00
34925;BME280;21130;51.728;8.748;2022-12-18T12:06:26;101518.47;;;-0.80;100.00
34925;BME280;21130;51.728;8.748;2022-12-18T12:09:04;101519.47;;;-0.81;100.00
34925;BME280;21130;51.728;8.748;2022-12-18T12:11:44;101522.34;;;-0.82;100.00
34925;BME280;21130;51.728;8.748;2022-12-18T12:14:31;101503.13;;;-0.81;100.00
34925;BME280;21130;51.728;8.748;2022-12-18T12:17:07;101502.28;;;-0.91;100.00
34925;BME280;21130;51.728;8.748;2022-12-18T12:19:43;101480.03;;;-0.87;100.00
34925;BME280;21130;51.728;8.748;2022-12-18T12:22:18;101477.63;;;-0.90;100.00
34925;BME280;21130;51.728;8.748;2022-12-18T12:25:02;101480.47;;;-0.91;100.00
34925;BME280;21130;51.728;8.748;2022-12-18T12:27:39;101478.63;;;-1.00;100.00
34925;BME280;21130;51.728;8.748;2022-12-18T12:30:18;101478.19;;;-1.05;100.00
34925;BME280;21130;51.728;8.748;2022-12-18T12:33:01;101466.31;;;-1.14;100.00
34925;BME280;21130;51.728;8.748;2022-12-18T12:35:38;101473.03;;;-1.18;100.00
34925;BME280;21130;51.728;8.748;2022-12-18T12:38:11;101476.91;;;-1.21;100.00
34925;BME280;21130;51.728;8.748;2022-12-18T12:40:44;101471.91;;;-1.25;100.00
34925;BME280;21130;51.728;8.748;2022-12-18T12:43:27;101467.75;;;-1.29;100.00
34925;BME280;21130;51.728;8.748;2022-12-18T12:45:57;101472.91;;;-1.26;100.00
34925;BME280;21130;51.728;8.748;2022-12-18T12:48:34;101482.78;;;-1.25;100.00
34925;BME280;21130;51.728;8.748;2022-12-18T12:51:10;101480.22;;;-1.27;100.00
34925;BME280;21130;51.728;8.748;2022-12-18T12:53:37;101485.09;;;-1.21;100.00
34925;BME280;21130;51.728;8.748;2022-12-18T12:56:07;101494.16;;;-1.20;100.00
34925;BME280;21130;51.728;8.748;2022-12-18T12:58:43;101474.19;;;-1.21;100.00
34925;BME280;21130;51.728;8.748;2022-12-18T13:01:18;101476.22;;;-1.23;100.00
34925;BME280;21130;51.728;8.748;2022-12-18T13:03:56;101477.34;;;-1.16;100.00